Buoy 46928

sailwx.info

Track history (hours):
 
Tides and Currents Weather Stations Pressure Air Temp Water Temp Dewpoint Dewpoint Depression Visibility Wind Speed Wind Dir Waves Ship Positions

Drifting buoy 46928

Last reported at 2015-Jan-29 02:30 UTC. Time now 2015-Jan-29 04:18 UTC.
Position N 49°45' W 138°48'.

Barometer 1017.1 mb
Water temperature 9.2 ° C

Date/timePositionNaut miles runAvg speedWind from/ knotsBaromVisibWave heightAir tempDewpointWater temp
2015-Jan-29 02:30N 49°45' W 138°48'0 0.5 1017.1 9.2
2015-Jan-29 01:30N 49°44' W 138°48'1 1.3 1016.4 9.2
2015-Jan-29 00:30N 49°44' W 138°46'1 0.6 1016.1 9.2
2015-Jan-28 23:30N 49°44' W 138°46'1 0.6 1015.4 9.2
2015-Jan-28 21:30N 49°45' W 138°44'1 1.0 1014.4 9.2
2015-Jan-28 20:30N 49°46' W 138°45'2 1.6 1014.0 9.2
2015-Jan-28 19:30N 49°47' W 138°47'0 0.0 1013.4 9.2
2015-Jan-28 18:30N 49°47' W 138°47'3 0.9 1012.5 9.2
2015-Jan-28 15:30N 49°46' W 138°50'1 1.5 1010.2 9.2
2015-Jan-28 14:30N 49°45' W 138°51'2 1.1 1009.3 9.2
2015-Jan-28 12:30N 49°43' W 138°51'4 2.1 1008.6 9.1
2015-Jan-28 10:30N 49°39' W 138°47'0 0.1 1009.3 9.1
2015-Jan-28 06:30N 49°39' W 138°47'0 0.3 1010.2 9.1
2015-Jan-28 05:30N 49°39' W 138°48'0 0.4 1010.4 9.1
2015-Jan-28 04:30N 49°39' W 138°48'1 0.5 1010.3 9.1
2015-Jan-28 02:30N 49°39' W 138°50'1 1.1 1010.1 9.1
2015-Jan-28 01:30N 49°39' W 138°51'2 0.8 1010.1 9.1
2015-Jan-27 23:30N 49°38' W 138°53'4 2.0 1010.4 9.1
2015-Jan-27 21:30N 49°34' W 138°55'0 0.3 1011.3 9.1
2015-Jan-27 20:30N 49°34' W 138°55'3 1.7 1012.2 9.1
2015-Jan-27 18:30N 49°31' W 138°52'0 0.0 1012.7 9.2
2015-Jan-27 17:30N 49°31' W 138°52'1 0.3 1013.0 9.2
2015-Jan-27 15:30N 49°30' W 138°51'1 0.2 1013.1 9.2
2015-Jan-27 12:30N 49°31' W 138°52'5 2.4 1014.2 9.2
2015-Jan-27 10:30N 49°28' W 138°57'1 0.5 1014.4 9.2
2015-Jan-27 07:30N 49°26' W 138°57'1 0.5 1014.4 9.2
2015-Jan-27 04:30N 49°26' W 138°55'2 1.7 1013.5 9.2
2015-Jan-27 03:30N 49°25' W 138°52'0 0.0 1013.1 9.2
2015-Jan-27 02:30N 49°25' W 138°52'1 0.6 1012.8 9.2
2015-Jan-27 01:30N 49°25' W 138°53'1 0.6 1012.8 9.2
2015-Jan-27 00:30N 49°26' W 138°53'2 1.9 1012.6 9.2
2015-Jan-26 23:30N 49°28' W 138°54'1 0.7 1012.4 9.3
2015-Jan-26 22:30N 49°27' W 138°55'2 0.5 1012.1 9.3
2015-Jan-26 18:30N 49°26' W 138°57'0 0.0 1012.1 9.2
2015-Jan-26 17:30N 49°26' W 138°57'1 0.5 1011.9 9.2
2015-Jan-26 15:30N 49°25' W 138°56'1 0.7 1011.4 9.2
2015-Jan-26 14:30N 49°25' W 138°55'1 1.0 1011.3 9.2
2015-Jan-26 13:30N 49°24' W 138°57'2 2.0 1011.6 9.2
2015-Jan-26 12:30N 49°25' W 138°54'1 0.2 1012.0 9.2
2015-Jan-26 05:30N 49°25' W 138°53'1 0.6 1012.8 9.2
2015-Jan-26 03:30N 49°25' W 138°54'0 0.3 1012.4 9.2
2015-Jan-26 02:30N 49°25' W 138°54'0 0.0 1012.3 9.2
2015-Jan-26 01:30N 49°25' W 138°54'0 0.2 1012.1 9.2
2015-Jan-25 23:30N 49°25' W 138°55'2 2.3 1012.2 9.2
2015-Jan-25 22:30N 49°22' W 138°54'1 0.3 1012.2 9.2
2015-Jan-25 20:30N 49°23' W 138°54'0 0.0 1013.3 9.2
2015-Jan-25 19:30N 49°23' W 138°54'2 1.0 1013.4 9.2
2015-Jan-25 17:30N 49°23' W 138°51'0 0.4 1012.1 9.2
2015-Jan-25 16:30N 49°23' W 138°51'1 0.7 1012.4 9.2
2015-Jan-25 15:30N 49°23' W 138°51'1 0.5 1012.1 9.2
2015-Jan-25 14:30N 49°24' W 138°52'1 0.8 1012.2 9.2
2015-Jan-25 13:30N 49°24' W 138°52'1 1.3 1012.1 9.2
2015-Jan-25 12:30N 49°23' W 138°53'1 1.1 1012.3 9.2
2015-Jan-25 11:30N 49°23' W 138°54'3 2.8 1012.3 9.2
2015-Jan-25 10:30N 49°21' W 138°57'1 0.3 1012.2 9.2
2015-Jan-25 06:30N 49°20' W 138°57'2 0.7 1011.0 9.2
2015-Jan-25 03:30N 49°18' W 138°57'1 0.2 1008.8 9.2
2015-Jan-25 00:30N 49°18' W 138°58'0 0.0 1005.5 9.2
2015-Jan-24 23:30N 49°18' W 138°58'0 0.2 1005.2 9.2
2015-Jan-24 22:30N 49°18' W 138°58'1 0.5 1004.3 9.2
2015-Jan-24 20:30N 49°18' W 138°59'3 0.9 1002.2 9.2
2015-Jan-24 17:30N 49°18' W 139°03'3 1.5 995.4 9.2
2015-Jan-24 15:30N 49°16' W 139°07'1 0.8 996.2 9.1
2015-Jan-24 14:30N 49°15' W 139°07'3 1.3 997.0 9.1
2015-Jan-24 12:30N 49°13' W 139°09'2 0.7 997.6 9.0
2015-Jan-24 09:30N 49°11' W 139°06'1 0.2 1003.3 9.0
2015-Jan-24 06:30N 49°12' W 139°06'1 0.3 1009.7 9.1
2015-Jan-24 03:30N 49°12' W 139°07'1 0.8 1012.8 9.1
2015-Jan-24 02:30N 49°12' W 139°08'1 1.3 1012.0 9.1
2015-Jan-24 01:30N 49°12' W 139°10'0 0.1 1012.0 9.1
2015-Jan-24 00:30N 49°12' W 139°10'3 0.7 1011.6 9.1
2015-Jan-23 19:30N 49°09' W 139°11'2 0.8 1010.4 9.0
2015-Jan-23 17:30N 49°10' W 139°10'0 0.0 1008.5 9.0
2015-Jan-23 16:30N 49°10' W 139°10'1 0.6 1007.4 9.0
2015-Jan-23 14:30N 49°10' W 139°12'1 0.6 1005.7 9.0
2015-Jan-23 13:30N 49°10' W 139°12'2 0.8 1004.8 9.1
2015-Jan-23 11:30N 49°11' W 139°15'3 1.4 1003.0 9.1
2015-Jan-23 09:30N 49°09' W 139°17'0 0.1 1001.3 9.2
2015-Jan-23 06:30N 49°09' W 139°17'1 0.6 1000.0 9.2
2015-Jan-23 05:30N 49°08' W 139°17'0 0.3 1000.6 9.2
2015-Jan-23 04:30N 49°08' W 139°17'0 0.4 1002.5 9.2
2015-Jan-23 03:30N 49°08' W 139°17'0 0.3 1002.7 9.2
2015-Jan-23 02:30N 49°08' W 139°17'0 0.2 1003.2 9.2
2015-Jan-23 00:30N 49°08' W 139°17'1 0.4 1004.5 9.2
2015-Jan-22 21:30N 49°07' W 139°18'3 0.9 1004.4 9.2
2015-Jan-22 18:30N 49°06' W 139°22'1 0.5 1002.4 9.2
2015-Jan-22 16:30N 49°06' W 139°21'0 0.0 998.9 9.2
2015-Jan-22 14:30N 49°06' W 139°20'1 0.3 997.5 9.2
2015-Jan-22 11:30N 49°06' W 139°21'2 0.3 1000.2 9.2
2015-Jan-22 06:30N 49°05' W 139°21'2 0.7 1004.7 9.2
2015-Jan-22 03:30N 49°03' W 139°24'1 0.8 1005.4 9.2
2015-Jan-22 02:30N 49°03' W 139°25'1 0.3 1004.4 9.1
2015-Jan-22 00:30N 49°03' W 139°24'1 0.4 1003.9 9.0
2015-Jan-21 21:30N 49°03' W 139°26'2 0.8 1002.8 9.0
2015-Jan-21 18:30N 49°02' W 139°29'1 0.3 1001.2 9.0
2015-Jan-21 15:30N 49°01' W 139°30'1 0.6 998.1 9.0
2015-Jan-21 13:30N 49°02' W 139°31'1 0.3 995.9 9.1
2015-Jan-21 11:30N 49°01' W 139°32'3 0.5 993.9 9.1
2015-Jan-21 05:30N 48°59' W 139°35'2 0.4 999.9 9.0
2015-Jan-21 00:30N 48°57' W 139°34'1 0.6 1003.9 9.0
2015-Jan-20 23:30N 48°57' W 139°34'1 0.3 1004.3 9.0
2015-Jan-20 21:30N 48°57' W 139°34'2 0.7 1004.9 9.0
2015-Jan-20 18:30N 48°56' W 139°37'1 1.3 1006.2 9.0
2015-Jan-20 17:30N 48°56' W 139°39'1 0.4 1006.5 9.1
2015-Jan-20 15:30N 48°56' W 139°38'1 0.5 1006.8 9.2
2015-Jan-20 13:30N 48°56' W 139°39'2 0.4 1007.9 9.2
2015-Jan-20 07:30N 48°55' W 139°42'0 0.0 1010.4 9.2
2015-Jan-20 06:30N 48°55' W 139°42'1 0.8 1010.1 9.2
2015-Jan-20 05:30N 48°54' W 139°43'1 0.4 1010.7 9.2
2015-Jan-20 03:30N 48°54' W 139°42'1 1.0 1011.5 9.2
2015-Jan-20 02:30N 48°55' W 139°43'1 0.6 1011.6 9.2
2015-Jan-20 01:30N 48°55' W 139°44'1 0.6 1011.9 9.2
2015-Jan-20 00:30N 48°55' W 139°44'3 0.9 1011.8 9.2
2015-Jan-19 21:30N 48°54' W 139°47'0 0.0 1012.6 9.2
2015-Jan-19 20:30N 48°54' W 139°47'0 0.2 1013.8 9.2
2015-Jan-19 19:30N 48°54' W 139°48'1 1.1 1014.8 9.2
2015-Jan-19 18:30N 48°53' W 139°48'2 1.9 1015.2 9.2
2015-Jan-19 17:30N 48°51' W 139°47'1 0.3 1015.7 9.2
2015-Jan-19 15:30N 48°51' W 139°48'0 0.4 1017.1 9.2
2015-Jan-19 14:30N 48°51' W 139°47'0 0.1 1017.6 9.1
2015-Jan-19 10:30N 48°51' W 139°46'0 0.0 1018.2 8.9
2015-Jan-19 09:30N 48°51' W 139°46'1 0.3 1018.1 8.9
2015-Jan-19 05:30N 48°51' W 139°48'0 0.4 1016.4 8.9
2015-Jan-19 04:30N 48°51' W 139°48'1 1.3 1015.5 8.9
2015-Jan-19 03:30N 48°50' W 139°50'1 0.5 1015.0 8.9
2015-Jan-19 02:30N 48°50' W 139°50'   1013.9 9.0
Track history (hours):
 
Tides and Currents Weather Stations Pressure Air Temp Water Temp Dewpoint Dewpoint Depression Visibility Wind Speed Wind Dir Waves Ship Positions

Drifting buoy 46928

Last reported at 2015-Jan-29 02:30 UTC. Time now 2015-Jan-29 04:18 UTC.
Position N 49°45' W 138°48'.

Barometer 1017.1 mb
Water temperature 9.2 ° C

Date/timePositionNaut miles runAvg speedWind from/ knotsBaromVisibWave heightAir tempDewpointWater temp
2015-Jan-29 02:30N 49°45' W 138°48'0 0.5 1017.1 9.2
2015-Jan-29 01:30N 49°44' W 138°48'1 1.3 1016.4 9.2
2015-Jan-29 00:30N 49°44' W 138°46'1 0.6 1016.1 9.2
2015-Jan-28 23:30N 49°44' W 138°46'1 0.6 1015.4 9.2
2015-Jan-28 21:30N 49°45' W 138°44'1 1.0 1014.4 9.2
2015-Jan-28 20:30N 49°46' W 138°45'2 1.6 1014.0 9.2
2015-Jan-28 19:30N 49°47' W 138°47'0 0.0 1013.4 9.2
2015-Jan-28 18:30N 49°47' W 138°47'3 0.9 1012.5 9.2
2015-Jan-28 15:30N 49°46' W 138°50'1 1.5 1010.2 9.2
2015-Jan-28 14:30N 49°45' W 138°51'2 1.1 1009.3 9.2
2015-Jan-28 12:30N 49°43' W 138°51'4 2.1 1008.6 9.1
2015-Jan-28 10:30N 49°39' W 138°47'0 0.1 1009.3 9.1
2015-Jan-28 06:30N 49°39' W 138°47'0 0.3 1010.2 9.1
2015-Jan-28 05:30N 49°39' W 138°48'0 0.4 1010.4 9.1
2015-Jan-28 04:30N 49°39' W 138°48'1 0.5 1010.3 9.1
2015-Jan-28 02:30N 49°39' W 138°50'1 1.1 1010.1 9.1
2015-Jan-28 01:30N 49°39' W 138°51'2 0.8 1010.1 9.1
2015-Jan-27 23:30N 49°38' W 138°53'4 2.0 1010.4 9.1
2015-Jan-27 21:30N 49°34' W 138°55'0 0.3 1011.3 9.1
2015-Jan-27 20:30N 49°34' W 138°55'3 1.7 1012.2 9.1
2015-Jan-27 18:30N 49°31' W 138°52'0 0.0 1012.7 9.2
2015-Jan-27 17:30N 49°31' W 138°52'1 0.3 1013.0 9.2
2015-Jan-27 15:30N 49°30' W 138°51'1 0.2 1013.1 9.2
2015-Jan-27 12:30N 49°31' W 138°52'5 2.4 1014.2 9.2
2015-Jan-27 10:30N 49°28' W 138°57'1 0.5 1014.4 9.2
2015-Jan-27 07:30N 49°26' W 138°57'1 0.5 1014.4 9.2
2015-Jan-27 04:30N 49°26' W 138°55'2 1.7 1013.5 9.2
2015-Jan-27 03:30N 49°25' W 138°52'0 0.0 1013.1 9.2
2015-Jan-27 02:30N 49°25' W 138°52'1 0.6 1012.8 9.2
2015-Jan-27 01:30N 49°25' W 138°53'1 0.6 1012.8 9.2
2015-Jan-27 00:30N 49°26' W 138°53'2 1.9 1012.6 9.2
2015-Jan-26 23:30N 49°28' W 138°54'1 0.7 1012.4 9.3
2015-Jan-26 22:30N 49°27' W 138°55'2 0.5 1012.1 9.3
2015-Jan-26 18:30N 49°26' W 138°57'0 0.0 1012.1 9.2
2015-Jan-26 17:30N 49°26' W 138°57'1 0.5 1011.9 9.2
2015-Jan-26 15:30N 49°25' W 138°56'1 0.7 1011.4 9.2
2015-Jan-26 14:30N 49°25' W 138°55'1 1.0 1011.3 9.2
2015-Jan-26 13:30N 49°24' W 138°57'2 2.0 1011.6 9.2
2015-Jan-26 12:30N 49°25' W 138°54'1 0.2 1012.0 9.2
2015-Jan-26 05:30N 49°25' W 138°53'1 0.6 1012.8 9.2
2015-Jan-26 03:30N 49°25' W 138°54'0 0.3 1012.4 9.2
2015-Jan-26 02:30N 49°25' W 138°54'0 0.0 1012.3 9.2
2015-Jan-26 01:30N 49°25' W 138°54'0 0.2 1012.1 9.2
2015-Jan-25 23:30N 49°25' W 138°55'2 2.3 1012.2 9.2
2015-Jan-25 22:30N 49°22' W 138°54'1 0.3 1012.2 9.2
2015-Jan-25 20:30N 49°23' W 138°54'0 0.0 1013.3 9.2
2015-Jan-25 19:30N 49°23' W 138°54'2 1.0 1013.4 9.2
2015-Jan-25 17:30N 49°23' W 138°51'0 0.4 1012.1 9.2
2015-Jan-25 16:30N 49°23' W 138°51'1 0.7 1012.4 9.2
2015-Jan-25 15:30N 49°23' W 138°51'1 0.5 1012.1 9.2
2015-Jan-25 14:30N 49°24' W 138°52'1 0.8 1012.2 9.2
2015-Jan-25 13:30N 49°24' W 138°52'1 1.3 1012.1 9.2
2015-Jan-25 12:30N 49°23' W 138°53'1 1.1 1012.3 9.2
2015-Jan-25 11:30N 49°23' W 138°54'3 2.8 1012.3 9.2
2015-Jan-25 10:30N 49°21' W 138°57'1 0.3 1012.2 9.2
2015-Jan-25 06:30N 49°20' W 138°57'2 0.7 1011.0 9.2
2015-Jan-25 03:30N 49°18' W 138°57'1 0.2 1008.8 9.2
2015-Jan-25 00:30N 49°18' W 138°58'0 0.0 1005.5 9.2
2015-Jan-24 23:30N 49°18' W 138°58'0 0.2 1005.2 9.2
2015-Jan-24 22:30N 49°18' W 138°58'1 0.5 1004.3 9.2
2015-Jan-24 20:30N 49°18' W 138°59'3 0.9 1002.2 9.2
2015-Jan-24 17:30N 49°18' W 139°03'3 1.5 995.4 9.2
2015-Jan-24 15:30N 49°16' W 139°07'1 0.8 996.2 9.1
2015-Jan-24 14:30N 49°15' W 139°07'3 1.3 997.0 9.1
2015-Jan-24 12:30N 49°13' W 139°09'2 0.7 997.6 9.0
2015-Jan-24 09:30N 49°11' W 139°06'1 0.2 1003.3 9.0
2015-Jan-24 06:30N 49°12' W 139°06'1 0.3 1009.7 9.1
2015-Jan-24 03:30N 49°12' W 139°07'1 0.8 1012.8 9.1
2015-Jan-24 02:30N 49°12' W 139°08'1 1.3 1012.0 9.1
2015-Jan-24 01:30N 49°12' W 139°10'0 0.1 1012.0 9.1
2015-Jan-24 00:30N 49°12' W 139°10'3 0.7 1011.6 9.1
2015-Jan-23 19:30N 49°09' W 139°11'2 0.8 1010.4 9.0
2015-Jan-23 17:30N 49°10' W 139°10'0 0.0 1008.5 9.0
2015-Jan-23 16:30N 49°10' W 139°10'1 0.6 1007.4 9.0
2015-Jan-23 14:30N 49°10' W 139°12'1 0.6 1005.7 9.0
2015-Jan-23 13:30N 49°10' W 139°12'2 0.8 1004.8 9.1
2015-Jan-23 11:30N 49°11' W 139°15'3 1.4 1003.0 9.1
2015-Jan-23 09:30N 49°09' W 139°17'0 0.1 1001.3 9.2
2015-Jan-23 06:30N 49°09' W 139°17'1 0.6 1000.0 9.2
2015-Jan-23 05:30N 49°08' W 139°17'0 0.3 1000.6 9.2
2015-Jan-23 04:30N 49°08' W 139°17'0 0.4 1002.5 9.2
2015-Jan-23 03:30N 49°08' W 139°17'0 0.3 1002.7 9.2
2015-Jan-23 02:30N 49°08' W 139°17'0 0.2 1003.2 9.2
2015-Jan-23 00:30N 49°08' W 139°17'1 0.4 1004.5 9.2
2015-Jan-22 21:30N 49°07' W 139°18'3 0.9 1004.4 9.2
2015-Jan-22 18:30N 49°06' W 139°22'1 0.5 1002.4 9.2
2015-Jan-22 16:30N 49°06' W 139°21'0 0.0 998.9 9.2
2015-Jan-22 14:30N 49°06' W 139°20'1 0.3 997.5 9.2
2015-Jan-22 11:30N 49°06' W 139°21'2 0.3 1000.2 9.2
2015-Jan-22 06:30N 49°05' W 139°21'2 0.7 1004.7 9.2
2015-Jan-22 03:30N 49°03' W 139°24'1 0.8 1005.4 9.2
2015-Jan-22 02:30N 49°03' W 139°25'1 0.3 1004.4 9.1
2015-Jan-22 00:30N 49°03' W 139°24'1 0.4 1003.9 9.0
2015-Jan-21 21:30N 49°03' W 139°26'2 0.8 1002.8 9.0
2015-Jan-21 18:30N 49°02' W 139°29'1 0.3 1001.2 9.0
2015-Jan-21 15:30N 49°01' W 139°30'1 0.6 998.1 9.0
2015-Jan-21 13:30N 49°02' W 139°31'1 0.3 995.9 9.1
2015-Jan-21 11:30N 49°01' W 139°32'3 0.5 993.9 9.1
2015-Jan-21 05:30N 48°59' W 139°35'2 0.4 999.9 9.0
2015-Jan-21 00:30N 48°57' W 139°34'1 0.6 1003.9 9.0
2015-Jan-20 23:30N 48°57' W 139°34'1 0.3 1004.3 9.0
2015-Jan-20 21:30N 48°57' W 139°34'2 0.7 1004.9 9.0
2015-Jan-20 18:30N 48°56' W 139°37'1 1.3 1006.2 9.0
2015-Jan-20 17:30N 48°56' W 139°39'1 0.4 1006.5 9.1
2015-Jan-20 15:30N 48°56' W 139°38'1 0.5 1006.8 9.2
2015-Jan-20 13:30N 48°56' W 139°39'2 0.4 1007.9 9.2
2015-Jan-20 07:30N 48°55' W 139°42'0 0.0 1010.4 9.2
2015-Jan-20 06:30N 48°55' W 139°42'1 0.8 1010.1 9.2
2015-Jan-20 05:30N 48°54' W 139°43'1 0.4 1010.7 9.2
2015-Jan-20 03:30N 48°54' W 139°42'1 1.0 1011.5 9.2
2015-Jan-20 02:30N 48°55' W 139°43'1 0.6 1011.6 9.2
2015-Jan-20 01:30N 48°55' W 139°44'1 0.6 1011.9 9.2
2015-Jan-20 00:30N 48°55' W 139°44'3 0.9 1011.8 9.2
2015-Jan-19 21:30N 48°54' W 139°47'0 0.0 1012.6 9.2
2015-Jan-19 20:30N 48°54' W 139°47'0 0.2 1013.8 9.2
2015-Jan-19 19:30N 48°54' W 139°48'1 1.1 1014.8 9.2
2015-Jan-19 18:30N 48°53' W 139°48'2 1.9 1015.2 9.2
2015-Jan-19 17:30N 48°51' W 139°47'1 0.3 1015.7 9.2
2015-Jan-19 15:30N 48°51' W 139°48'0 0.4 1017.1 9.2
2015-Jan-19 14:30N 48°51' W 139°47'0 0.1 1017.6 9.1
2015-Jan-19 10:30N 48°51' W 139°46'0 0.0 1018.2 8.9
2015-Jan-19 09:30N 48°51' W 139°46'1 0.3 1018.1 8.9
2015-Jan-19 05:30N 48°51' W 139°48'0 0.4 1016.4 8.9
2015-Jan-19 04:30N 48°51' W 139°48'1 1.3 1015.5 8.9
2015-Jan-19 03:30N 48°50' W 139°50'1 0.5 1015.0 8.9
2015-Jan-19 02:30N 48°50' W 139°50'   1013.9 9.0

Dump ship's entire track history